sensor_id;sensor_type;location;lat;lon;timestamp;P1;durP1;ratioP1;P2;durP2;ratioP2
68398;SDS011;56258;52.196;13.868;2022-09-12T00:01:34;4.05;;;0.80;;
68398;SDS011;56258;52.196;13.868;2022-09-12T00:04:01;3.60;;;0.70;;
68398;SDS011;56258;52.196;13.868;2022-09-12T00:06:29;3.10;;;0.50;;
68398;SDS011;56258;52.196;13.868;2022-09-12T00:08:58;3.50;;;0.80;;
68398;SDS011;56258;52.196;13.868;2022-09-12T00:11:29;3.97;;;0.90;;
68398;SDS011;56258;52.196;13.868;2022-09-12T00:13:57;3.53;;;0.70;;
68398;SDS011;56258;52.196;13.868;2022-09-12T00:16:27;3.60;;;0.80;;
68398;SDS011;56258;52.196;13.868;2022-09-12T00:18:55;3.47;;;0.70;;
68398;SDS011;56258;52.196;13.868;2022-09-12T00:21:22;3.60;;;0.68;;
68398;SDS011;56258;52.196;13.868;2022-09-12T00:23:49;3.53;;;0.70;;
68398;SDS011;56258;52.196;13.868;2022-09-12T00:26:17;3.53;;;0.75;;
68398;SDS011;56258;52.196;13.868;2022-09-12T00:28:44;4.15;;;1.00;;
68398;SDS011;56258;52.196;13.868;2022-09-12T00:31:12;4.20;;;0.73;;
68398;SDS011;56258;52.196;13.868;2022-09-12T00:33:40;3.75;;;0.70;;
68398;SDS011;56258;52.196;13.868;2022-09-12T00:36:10;4.00;;;0.75;;
68398;SDS011;56258;52.196;13.868;2022-09-12T00:38:45;3.75;;;0.80;;
68398;SDS011;56258;52.196;13.868;2022-09-12T00:41:17;3.67;;;0.80;;
68398;SDS011;56258;52.196;13.868;2022-09-12T00:43:50;3.40;;;0.70;;
68398;SDS011;56258;52.196;13.868;2022-09-12T00:48:54;3.80;;;0.70;;
68398;SDS011;56258;52.196;13.868;2022-09-12T00:51:24;3.40;;;0.70;;
68398;SDS011;56258;52.196;13.868;2022-09-12T00:53:53;3.67;;;0.70;;
68398;SDS011;56258;52.196;13.868;2022-09-12T00:56:21;3.17;;;0.63;;
68398;SDS011;56258;52.196;13.868;2022-09-12T00:58:50;3.40;;;0.70;;
68398;SDS011;56258;52.196;13.868;2022-09-12T01:01:23;3.70;;;0.80;;
68398;SDS011;56258;52.196;13.868;2022-09-12T01:03:55;3.28;;;0.82;;
68398;SDS011;56258;52.196;13.868;2022-09-12T01:06:25;3.67;;;0.70;;
68398;SDS011;56258;52.196;13.868;2022-09-12T01:08:53;3.70;;;0.70;;
68398;SDS011;56258;52.196;13.868;2022-09-12T01:11:21;3.53;;;0.70;;
68398;SDS011;56258;52.196;13.868;2022-09-12T01:13:48;3.72;;;0.80;;
68398;SDS011;56258;52.196;13.868;2022-09-12T01:16:16;4.63;;;0.70;;
68398;SDS011;56258;52.196;13.868;2022-09-12T01:24:52;3.47;;;0.73;;
68398;SDS011;56258;52.196;13.868;2022-09-12T01:33:06;3.55;;;0.70;;
68398;SDS011;56258;52.196;13.868;2022-09-12T01:36:44;3.08;;;0.60;;
68398;SDS011;56258;52.196;13.868;2022-09-12T01:41:47;3.60;;;0.70;;
68398;SDS011;56258;52.196;13.868;2022-09-12T01:52:24;3.53;;;0.70;;
68398;SDS011;56258;52.196;13.868;2022-09-12T01:55:40;3.30;;;0.60;;
68398;SDS011;56258;52.196;13.868;2022-09-12T01:58:05;3.70;;;0.70;;
68398;SDS011;56258;52.196;13.868;2022-09-12T02:00:40;3.25;;;0.70;;
68398;SDS011;56258;52.196;13.868;2022-09-12T02:03:13;3.70;;;0.60;;
68398;SDS011;56258;52.196;13.868;2022-09-12T02:05:47;4.07;;;0.80;;
68398;SDS011;56258;52.196;13.868;2022-09-12T02:08:18;3.45;;;0.68;;
68398;SDS011;56258;52.196;13.868;2022-09-12T02:10:56;3.60;;;0.70;;
68398;SDS011;56258;52.196;13.868;2022-09-12T02:13:38;3.57;;;0.60;;
68398;SDS011;56258;52.196;13.868;2022-09-12T02:16:09;3.13;;;0.60;;
68398;SDS011;56258;52.196;13.868;2022-09-12T02:18:39;3.60;;;0.70;;
68398;SDS011;56258;52.196;13.868;2022-09-12T02:21:16;3.30;;;0.60;;
68398;SDS011;56258;52.196;13.868;2022-09-12T02:23:47;2.75;;;0.60;;
68398;SDS011;56258;52.196;13.868;2022-09-12T02:26:22;2.87;;;0.60;;
68398;SDS011;56258;52.196;13.868;2022-09-12T02:29:25;3.38;;;0.80;;
68398;SDS011;56258;52.196;13.868;2022-09-12T02:31:53;3.50;;;0.70;;
68398;SDS011;56258;52.196;13.868;2022-09-12T02:34:40;2.90;;;0.60;;
68398;SDS011;56258;52.196;13.868;2022-09-12T02:37:20;4.10;;;0.68;;
68398;SDS011;56258;52.196;13.868;2022-09-12T02:39:53;4.20;;;0.70;;
68398;SDS011;56258;52.196;13.868;2022-09-12T02:42:21;3.42;;;0.70;;
68398;SDS011;56258;52.196;13.868;2022-09-12T02:44:49;3.63;;;0.80;;
68398;SDS011;56258;52.196;13.868;2022-09-12T02:47:26;3.10;;;0.68;;
68398;SDS011;56258;52.196;13.868;2022-09-12T02:49:57;3.38;;;0.77;;
68398;SDS011;56258;52.196;13.868;2022-09-12T02:52:25;2.73;;;0.60;;
68398;SDS011;56258;52.196;13.868;2022-09-12T02:54:54;3.15;;;0.60;;
68398;SDS011;56258;52.196;13.868;2022-09-12T02:57:22;3.63;;;0.90;;
68398;SDS011;56258;52.196;13.868;2022-09-12T02:59:50;3.35;;;0.60;;
68398;SDS011;56258;52.196;13.868;2022-09-12T03:02:25;3.85;;;0.77;;
68398;SDS011;56258;52.196;13.868;2022-09-12T03:07:50;3.70;;;0.70;;
68398;SDS011;56258;52.196;13.868;2022-09-12T03:13:40;3.33;;;0.65;;
68398;SDS011;56258;52.196;13.868;2022-09-12T03:22:07;3.40;;;0.70;;
68398;SDS011;56258;52.196;13.868;2022-09-12T03:27:59;4.07;;;0.70;;
68398;SDS011;56258;52.196;13.868;2022-09-12T03:30:38;4.32;;;0.52;;
68398;SDS011;56258;52.196;13.868;2022-09-12T03:33:09;3.60;;;0.70;;
68398;SDS011;56258;52.196;13.868;2022-09-12T03:35:37;3.10;;;0.60;;
68398;SDS011;56258;52.196;13.868;2022-09-12T03:38:04;3.63;;;0.60;;
68398;SDS011;56258;52.196;13.868;2022-09-12T03:40:33;10.90;;;0.60;;
68398;SDS011;56258;52.196;13.868;2022-09-12T03:43:00;4.15;;;0.70;;
68398;SDS011;56258;52.196;13.868;2022-09-12T03:45:27;2.73;;;0.50;;
68398;SDS011;56258;52.196;13.868;2022-09-12T03:47:54;4.95;;;0.93;;
68398;SDS011;56258;52.196;13.868;2022-09-12T03:50:21;3.63;;;0.55;;
68398;SDS011;56258;52.196;13.868;2022-09-12T03:52:47;3.85;;;0.57;;
68398;SDS011;56258;52.196;13.868;2022-09-12T03:55:14;3.15;;;0.60;;
68398;SDS011;56258;52.196;13.868;2022-09-12T03:57:41;3.87;;;0.80;;
68398;SDS011;56258;52.196;13.868;2022-09-12T04:00:07;4.90;;;0.80;;
68398;SDS011;56258;52.196;13.868;2022-09-12T04:02:35;5.57;;;0.77;;
68398;SDS011;56258;52.196;13.868;2022-09-12T04:05:02;4.43;;;0.70;;
68398;SDS011;56258;52.196;13.868;2022-09-12T04:07:29;4.97;;;1.08;;
68398;SDS011;56258;52.196;13.868;2022-09-12T04:09:56;4.37;;;0.77;;
68398;SDS011;56258;52.196;13.868;2022-09-12T04:12:22;4.78;;;0.80;;
68398;SDS011;56258;52.196;13.868;2022-09-12T04:14:49;5.40;;;0.80;;
68398;SDS011;56258;52.196;13.868;2022-09-12T04:17:16;4.25;;;0.73;;
68398;SDS011;56258;52.196;13.868;2022-09-12T04:19:42;4.95;;;0.90;;
68398;SDS011;56258;52.196;13.868;2022-09-12T04:22:09;4.82;;;0.70;;
68398;SDS011;56258;52.196;13.868;2022-09-12T04:24:35;4.57;;;0.70;;
68398;SDS011;56258;52.196;13.868;2022-09-12T04:27:02;4.47;;;0.63;;
68398;SDS011;56258;52.196;13.868;2022-09-12T04:29:33;3.37;;;0.60;;
68398;SDS011;56258;52.196;13.868;2022-09-12T04:32:01;3.85;;;0.60;;
68398;SDS011;56258;52.196;13.868;2022-09-12T04:34:29;3.28;;;0.60;;
68398;SDS011;56258;52.196;13.868;2022-09-12T04:36:57;3.70;;;0.70;;
68398;SDS011;56258;52.196;13.868;2022-09-12T04:39:24;3.20;;;0.60;;
68398;SDS011;56258;52.196;13.868;2022-09-12T04:41:51;3.10;;;0.60;;
68398;SDS011;56258;52.196;13.868;2022-09-12T04:44:17;4.18;;;0.70;;
68398;SDS011;56258;52.196;13.868;2022-09-12T04:46:44;3.05;;;0.60;;
68398;SDS011;56258;52.196;13.868;2022-09-12T04:49:12;3.75;;;0.77;;
68398;SDS011;56258;52.196;13.868;2022-09-12T04:51:42;6.32;;;0.70;;
68398;SDS011;56258;52.196;13.868;2022-09-12T04:54:13;3.97;;;0.60;;
68398;SDS011;56258;52.196;13.868;2022-09-12T04:56:43;4.35;;;0.60;;
68398;SDS011;56258;52.196;13.868;2022-09-12T04:59:12;4.70;;;0.70;;
68398;SDS011;56258;52.196;13.868;2022-09-12T05:01:41;4.53;;;0.90;;
68398;SDS011;56258;52.196;13.868;2022-09-12T05:04:11;4.20;;;0.73;;
68398;SDS011;56258;52.196;13.868;2022-09-12T05:06:39;3.93;;;0.80;;
68398;SDS011;56258;52.196;13.868;2022-09-12T05:09:07;4.22;;;0.85;;
68398;SDS011;56258;52.196;13.868;2022-09-12T05:11:37;3.88;;;0.98;;
68398;SDS011;56258;52.196;13.868;2022-09-12T05:14:26;3.50;;;0.77;;
68398;SDS011;56258;52.196;13.868;2022-09-12T05:16:52;3.03;;;0.60;;
68398;SDS011;56258;52.196;13.868;2022-09-12T05:19:21;4.07;;;0.60;;
68398;SDS011;56258;52.196;13.868;2022-09-12T05:21:48;3.25;;;0.65;;
68398;SDS011;56258;52.196;13.868;2022-09-12T05:24:15;3.35;;;0.70;;
68398;SDS011;56258;52.196;13.868;2022-09-12T05:26:42;4.82;;;0.77;;
68398;SDS011;56258;52.196;13.868;2022-09-12T05:29:09;4.50;;;1.00;;
68398;SDS011;56258;52.196;13.868;2022-09-12T05:31:35;5.53;;;0.80;;
68398;SDS011;56258;52.196;13.868;2022-09-12T05:34:02;4.45;;;0.75;;
68398;SDS011;56258;52.196;13.868;2022-09-12T05:36:33;4.43;;;0.95;;
68398;SDS011;56258;52.196;13.868;2022-09-12T05:39:00;4.70;;;0.70;;
68398;SDS011;56258;52.196;13.868;2022-09-12T05:41:27;3.58;;;0.80;;
68398;SDS011;56258;52.196;13.868;2022-09-12T05:43:59;3.70;;;0.87;;
68398;SDS011;56258;52.196;13.868;2022-09-12T05:46:36;3.97;;;0.90;;
68398;SDS011;56258;52.196;13.868;2022-09-12T05:49:04;4.18;;;0.80;;
68398;SDS011;56258;52.196;13.868;2022-09-12T05:51:33;3.50;;;0.80;;
68398;SDS011;56258;52.196;13.868;2022-09-12T05:54:01;5.13;;;0.80;;
68398;SDS011;56258;52.196;13.868;2022-09-12T05:56:30;3.73;;;0.60;;
68398;SDS011;56258;52.196;13.868;2022-09-12T05:59:00;3.95;;;0.85;;
68398;SDS011;56258;52.196;13.868;2022-09-12T06:01:29;4.30;;;0.80;;
68398;SDS011;56258;52.196;13.868;2022-09-12T06:03:57;4.18;;;0.90;;
68398;SDS011;56258;52.196;13.868;2022-09-12T06:06:26;3.75;;;0.80;;
68398;SDS011;56258;52.196;13.868;2022-09-12T06:09:00;3.50;;;0.70;;
68398;SDS011;56258;52.196;13.868;2022-09-12T06:11:30;3.65;;;0.70;;
68398;SDS011;56258;52.196;13.868;2022-09-12T06:13:58;3.40;;;0.80;;
68398;SDS011;56258;52.196;13.868;2022-09-12T06:16:26;3.75;;;0.77;;
68398;SDS011;56258;52.196;13.868;2022-09-12T06:18:55;3.35;;;0.70;;
68398;SDS011;56258;52.196;13.868;2022-09-12T06:21:25;3.97;;;0.80;;
68398;SDS011;56258;52.196;13.868;2022-09-12T06:23:53;3.67;;;0.68;;
68398;SDS011;56258;52.196;13.868;2022-09-12T06:26:20;4.15;;;0.90;;
68398;SDS011;56258;52.196;13.868;2022-09-12T06:28:49;3.90;;;0.85;;
68398;SDS011;56258;52.196;13.868;2022-09-12T06:31:16;4.32;;;1.00;;
68398;SDS011;56258;52.196;13.868;2022-09-12T06:33:46;4.17;;;0.80;;
68398;SDS011;56258;52.196;13.868;2022-09-12T06:36:15;3.78;;;0.70;;
68398;SDS011;56258;52.196;13.868;2022-09-12T06:38:43;3.70;;;0.80;;
68398;SDS011;56258;52.196;13.868;2022-09-12T06:41:16;3.35;;;0.70;;
68398;SDS011;56258;52.196;13.868;2022-09-12T06:43:43;3.97;;;0.80;;
68398;SDS011;56258;52.196;13.868;2022-09-12T06:46:10;3.17;;;0.67;;
68398;SDS011;56258;52.196;13.868;2022-09-12T06:48:38;3.83;;;0.85;;
68398;SDS011;56258;52.196;13.868;2022-09-12T06:51:11;3.40;;;0.70;;
68398;SDS011;56258;52.196;13.868;2022-09-12T06:53:40;4.15;;;0.98;;
68398;SDS011;56258;52.196;13.868;2022-09-12T06:56:17;3.90;;;0.88;;
68398;SDS011;56258;52.196;13.868;2022-09-12T06:58:45;4.27;;;0.80;;
68398;SDS011;56258;52.196;13.868;2022-09-12T07:01:21;3.67;;;0.77;;
68398;SDS011;56258;52.196;13.868;2022-09-12T07:03:52;3.80;;;0.90;;
68398;SDS011;56258;52.196;13.868;2022-09-12T07:06:30;4.97;;;0.80;;
68398;SDS011;56258;52.196;13.868;2022-09-12T07:09:02;3.20;;;0.75;;
68398;SDS011;56258;52.196;13.868;2022-09-12T07:11:32;4.30;;;0.80;;
68398;SDS011;56258;52.196;13.868;2022-09-12T07:14:01;4.22;;;0.90;;
68398;SDS011;56258;52.196;13.868;2022-09-12T07:16:29;3.58;;;0.85;;
68398;SDS011;56258;52.196;13.868;2022-09-12T07:18:57;3.38;;;0.60;;
68398;SDS011;56258;52.196;13.868;2022-09-12T07:21:26;4.78;;;0.95;;
68398;SDS011;56258;52.196;13.868;2022-09-12T07:23:53;3.70;;;0.90;;
68398;SDS011;56258;52.196;13.868;2022-09-12T07:26:23;3.47;;;0.75;;
68398;SDS011;56258;52.196;13.868;2022-09-12T07:28:52;3.80;;;0.90;;
68398;SDS011;56258;52.196;13.868;2022-09-12T07:31:21;4.18;;;0.90;;
68398;SDS011;56258;52.196;13.868;2022-09-12T07:33:49;3.78;;;0.90;;
68398;SDS011;56258;52.196;13.868;2022-09-12T07:36:21;3.80;;;0.90;;
68398;SDS011;56258;52.196;13.868;2022-09-12T07:38:52;3.40;;;0.80;;
68398;SDS011;56258;52.196;13.868;2022-09-12T07:41:26;4.18;;;1.00;;
68398;SDS011;56258;52.196;13.868;2022-09-12T07:43:55;4.10;;;1.00;;
68398;SDS011;56258;52.196;13.868;2022-09-12T07:46:23;4.38;;;0.80;;
68398;SDS011;56258;52.196;13.868;2022-09-12T07:48:52;4.00;;;0.80;;
68398;SDS011;56258;52.196;13.868;2022-09-12T07:51:20;4.10;;;0.85;;
68398;SDS011;56258;52.196;13.868;2022-09-12T07:53:47;3.95;;;1.08;;
68398;SDS011;56258;52.196;13.868;2022-09-12T07:56:15;4.38;;;1.00;;
68398;SDS011;56258;52.196;13.868;2022-09-12T07:58:42;3.80;;;0.70;;
68398;SDS011;56258;52.196;13.868;2022-09-12T08:01:13;4.10;;;0.80;;
68398;SDS011;56258;52.196;13.868;2022-09-12T08:03:44;3.75;;;0.88;;
68398;SDS011;56258;52.196;13.868;2022-09-12T08:08:41;4.43;;;0.90;;
68398;SDS011;56258;52.196;13.868;2022-09-12T08:11:09;3.67;;;0.90;;
68398;SDS011;56258;52.196;13.868;2022-09-12T08:13:38;5.27;;;0.70;;
68398;SDS011;56258;52.196;13.868;2022-09-12T08:16:07;4.90;;;0.80;;
68398;SDS011;56258;52.196;13.868;2022-09-12T08:18:37;3.90;;;0.77;;
68398;SDS011;56258;52.196;13.868;2022-09-12T08:21:05;3.50;;;0.90;;
68398;SDS011;56258;52.196;13.868;2022-09-12T08:23:34;4.30;;;0.80;;
68398;SDS011;56258;52.196;13.868;2022-09-12T08:26:02;3.67;;;0.83;;
68398;SDS011;56258;52.196;13.868;2022-09-12T08:28:32;3.45;;;0.77;;
68398;SDS011;56258;52.196;13.868;2022-09-12T08:31:03;4.38;;;1.00;;
68398;SDS011;56258;52.196;13.868;2022-09-12T08:33:31;3.40;;;0.73;;
68398;SDS011;56258;52.196;13.868;2022-09-12T08:36:05;3.50;;;0.80;;
68398;SDS011;56258;52.196;13.868;2022-09-12T08:38:33;3.73;;;0.77;;
68398;SDS011;56258;52.196;13.868;2022-09-12T08:41:02;4.50;;;0.90;;
68398;SDS011;56258;52.196;13.868;2022-09-12T08:46:23;3.55;;;0.90;;
68398;SDS011;56258;52.196;13.868;2022-09-12T08:48:57;3.08;;;0.65;;
68398;SDS011;56258;52.196;13.868;2022-09-12T08:51:26;3.80;;;0.90;;
68398;SDS011;56258;52.196;13.868;2022-09-12T08:53:54;4.05;;;0.93;;
68398;SDS011;56258;52.196;13.868;2022-09-12T08:56:23;2.97;;;0.70;;
68398;SDS011;56258;52.196;13.868;2022-09-12T08:58:56;3.67;;;0.80;;
68398;SDS011;56258;52.196;13.868;2022-09-12T09:01:30;4.07;;;0.90;;
68398;SDS011;56258;52.196;13.868;2022-09-12T09:04:16;3.50;;;0.80;;
68398;SDS011;56258;52.196;13.868;2022-09-12T09:07:15;4.57;;;1.10;;
68398;SDS011;56258;52.196;13.868;2022-09-12T09:18:53;3.77;;;0.90;;
68398;SDS011;56258;52.196;13.868;2022-09-12T09:21:24;4.43;;;1.08;;
68398;SDS011;56258;52.196;13.868;2022-09-12T09:24:07;3.80;;;1.00;;
68398;SDS011;56258;52.196;13.868;2022-09-12T09:26:46;3.25;;;0.77;;
68398;SDS011;56258;52.196;13.868;2022-09-12T09:29:19;3.30;;;0.85;;
68398;SDS011;56258;52.196;13.868;2022-09-12T09:31:48;3.80;;;0.80;;
68398;SDS011;56258;52.196;13.868;2022-09-12T09:34:19;4.00;;;0.77;;
68398;SDS011;56258;52.196;13.868;2022-09-12T09:37:51;5.13;;;1.42;;
68398;SDS011;56258;52.196;13.868;2022-09-12T09:42:55;5.05;;;0.93;;
68398;SDS011;56258;52.196;13.868;2022-09-12T09:45:44;3.50;;;0.93;;
68398;SDS011;56258;52.196;13.868;2022-09-12T09:48:17;6.07;;;1.10;;
68398;SDS011;56258;52.196;13.868;2022-09-12T09:50:47;5.32;;;1.25;;
68398;SDS011;56258;52.196;13.868;2022-09-12T09:53:21;8.73;;;1.30;;
68398;SDS011;56258;52.196;13.868;2022-09-12T09:56:25;6.40;;;1.27;;
68398;SDS011;56258;52.196;13.868;2022-09-12T09:58:53;6.03;;;1.07;;
68398;SDS011;56258;52.196;13.868;2022-09-12T10:01:20;5.18;;;1.23;;
68398;SDS011;56258;52.196;13.868;2022-09-12T10:03:47;5.93;;;1.30;;
68398;SDS011;56258;52.196;13.868;2022-09-12T10:06:22;6.30;;;1.20;;
68398;SDS011;56258;52.196;13.868;2022-09-12T10:08:50;5.95;;;1.30;;
68398;SDS011;56258;52.196;13.868;2022-09-12T10:11:40;6.20;;;1.27;;
68398;SDS011;56258;52.196;13.868;2022-09-12T10:16:52;4.88;;;1.05;;
68398;SDS011;56258;52.196;13.868;2022-09-12T10:19:20;3.88;;;0.90;;
68398;SDS011;56258;52.196;13.868;2022-09-12T10:21:51;4.63;;;0.80;;
68398;SDS011;56258;52.196;13.868;2022-09-12T10:27:07;4.15;;;0.77;;
68398;SDS011;56258;52.196;13.868;2022-09-12T10:29:40;4.10;;;1.08;;
68398;SDS011;56258;52.196;13.868;2022-09-12T10:32:10;3.50;;;1.02;;
68398;SDS011;56258;52.196;13.868;2022-09-12T10:34:42;3.90;;;1.15;;
68398;SDS011;56258;52.196;13.868;2022-09-12T10:37:22;4.00;;;1.13;;
68398;SDS011;56258;52.196;13.868;2022-09-12T10:39:53;3.88;;;1.10;;
68398;SDS011;56258;52.196;13.868;2022-09-12T10:45:17;5.20;;;1.33;;
68398;SDS011;56258;52.196;13.868;2022-09-12T10:50:57;3.70;;;1.10;;
68398;SDS011;56258;52.196;13.868;2022-09-12T10:53:26;4.82;;;0.80;;
68398;SDS011;56258;52.196;13.868;2022-09-12T10:56:05;5.28;;;1.25;;
68398;SDS011;56258;52.196;13.868;2022-09-12T11:15:48;4.10;;;0.70;;
68398;SDS011;56258;52.196;13.868;2022-09-12T11:18:46;4.33;;;0.60;;
68398;SDS011;56258;52.196;13.868;2022-09-12T11:24:49;3.45;;;0.60;;
68398;SDS011;56258;52.196;13.868;2022-09-12T11:29:57;4.00;;;0.80;;
68398;SDS011;56258;52.196;13.868;2022-09-12T11:42:45;3.40;;;0.70;;
68398;SDS011;56258;52.196;13.868;2022-09-12T11:45:19;2.87;;;0.50;;
68398;SDS011;56258;52.196;13.868;2022-09-12T11:47:52;3.78;;;0.65;;
68398;SDS011;56258;52.196;13.868;2022-09-12T11:50:25;3.88;;;1.02;;
68398;SDS011;56258;52.196;13.868;2022-09-12T11:52:59;3.65;;;0.90;;
68398;SDS011;56258;52.196;13.868;2022-09-12T11:55:54;3.60;;;0.90;;
68398;SDS011;56258;52.196;13.868;2022-09-12T11:58:41;3.27;;;0.70;;
68398;SDS011;56258;52.196;13.868;2022-09-12T12:01:13;3.63;;;0.70;;
68398;SDS011;56258;52.196;13.868;2022-09-12T12:03:44;3.40;;;1.05;;
68398;SDS011;56258;52.196;13.868;2022-09-12T12:06:16;3.30;;;0.70;;
68398;SDS011;56258;52.196;13.868;2022-09-12T12:08:47;3.28;;;0.63;;
68398;SDS011;56258;52.196;13.868;2022-09-12T12:14:01;3.03;;;0.70;;
68398;SDS011;56258;52.196;13.868;2022-09-12T12:16:33;4.05;;;1.20;;
68398;SDS011;56258;52.196;13.868;2022-09-12T12:19:03;2.55;;;0.73;;
68398;SDS011;56258;52.196;13.868;2022-09-12T12:21:45;3.30;;;0.80;;
68398;SDS011;56258;52.196;13.868;2022-09-12T12:24:22;2.97;;;0.83;;
68398;SDS011;56258;52.196;13.868;2022-09-12T12:29:47;3.30;;;1.02;;
68398;SDS011;56258;52.196;13.868;2022-09-12T12:32:18;3.28;;;0.88;;
68398;SDS011;56258;52.196;13.868;2022-09-12T12:34:46;3.13;;;0.88;;
68398;SDS011;56258;52.196;13.868;2022-09-12T12:45:02;2.88;;;0.90;;
68398;SDS011;56258;52.196;13.868;2022-09-12T12:47:49;2.80;;;0.70;;
68398;SDS011;56258;52.196;13.868;2022-09-12T12:52:49;3.17;;;0.80;;
68398;SDS011;56258;52.196;13.868;2022-09-12T12:58:24;3.40;;;0.80;;
68398;SDS011;56258;52.196;13.868;2022-09-12T13:03:42;2.40;;;0.60;;
68398;SDS011;56258;52.196;13.868;2022-09-12T13:06:24;3.42;;;0.80;;
68398;SDS011;56258;52.196;13.868;2022-09-12T13:09:02;2.50;;;0.70;;
68398;SDS011;56258;52.196;13.868;2022-09-12T13:11:34;2.38;;;0.60;;
68398;SDS011;56258;52.196;13.868;2022-09-12T13:14:04;3.42;;;0.80;;
68398;SDS011;56258;52.196;13.868;2022-09-12T13:16:38;2.70;;;0.53;;
68398;SDS011;56258;52.196;13.868;2022-09-12T13:19:51;4.72;;;0.65;;
68398;SDS011;56258;52.196;13.868;2022-09-12T13:22:11;3.85;;;0.70;;
68398;SDS011;56258;52.196;13.868;2022-09-12T13:24:42;3.88;;;0.55;;
68398;SDS011;56258;52.196;13.868;2022-09-12T13:27:20;5.25;;;0.80;;
68398;SDS011;56258;52.196;13.868;2022-09-12T13:29:48;3.33;;;0.60;;
68398;SDS011;56258;52.196;13.868;2022-09-12T13:32:15;2.60;;;0.65;;
68398;SDS011;56258;52.196;13.868;2022-09-12T13:34:59;2.75;;;0.60;;
68398;SDS011;56258;52.196;13.868;2022-09-12T13:40:26;3.28;;;0.60;;
68398;SDS011;56258;52.196;13.868;2022-09-12T13:43:07;3.33;;;0.70;;
68398;SDS011;56258;52.196;13.868;2022-09-12T13:45:40;2.15;;;0.50;;
68398;SDS011;56258;52.196;13.868;2022-09-12T13:48:12;2.42;;;0.60;;
68398;SDS011;56258;52.196;13.868;2022-09-12T13:50:45;2.30;;;0.47;;
68398;SDS011;56258;52.196;13.868;2022-09-12T13:53:18;2.90;;;0.50;;
68398;SDS011;56258;52.196;13.868;2022-09-12T13:55:50;2.30;;;0.40;;
68398;SDS011;56258;52.196;13.868;2022-09-12T13:58:25;4.38;;;0.47;;
68398;SDS011;56258;52.196;13.868;2022-09-12T14:01:09;2.70;;;0.63;;
68398;SDS011;56258;52.196;13.868;2022-09-12T14:06:35;2.17;;;0.40;;
68398;SDS011;56258;52.196;13.868;2022-09-12T14:09:16;1.97;;;0.50;;
68398;SDS011;56258;52.196;13.868;2022-09-12T14:11:51;2.60;;;0.57;;
68398;SDS011;56258;52.196;13.868;2022-09-12T14:14:26;2.00;;;0.40;;
68398;SDS011;56258;52.196;13.868;2022-09-12T14:16:59;3.55;;;0.60;;
68398;SDS011;56258;52.196;13.868;2022-09-12T14:19:26;2.47;;;0.40;;
68398;SDS011;56258;52.196;13.868;2022-09-12T14:21:55;2.73;;;0.40;;
68398;SDS011;56258;52.196;13.868;2022-09-12T14:24:22;3.15;;;0.40;;
68398;SDS011;56258;52.196;13.868;2022-09-12T14:26:51;1.92;;;0.35;;
68398;SDS011;56258;52.196;13.868;2022-09-12T14:29:21;2.35;;;0.47;;
68398;SDS011;56258;52.196;13.868;2022-09-12T14:32:00;3.10;;;0.60;;
68398;SDS011;56258;52.196;13.868;2022-09-12T14:34:28;2.07;;;0.40;;
68398;SDS011;56258;52.196;13.868;2022-09-12T14:36:56;1.90;;;0.40;;
68398;SDS011;56258;52.196;13.868;2022-09-12T14:39:36;2.53;;;0.50;;
68398;SDS011;56258;52.196;13.868;2022-09-12T14:42:14;3.42;;;0.60;;
68398;SDS011;56258;52.196;13.868;2022-09-12T14:45:16;3.10;;;0.60;;
68398;SDS011;56258;52.196;13.868;2022-09-12T14:47:42;2.03;;;0.40;;
68398;SDS011;56258;52.196;13.868;2022-09-12T14:50:19;2.60;;;0.50;;
68398;SDS011;56258;52.196;13.868;2022-09-12T14:53:20;2.30;;;0.50;;
68398;SDS011;56258;52.196;13.868;2022-09-12T14:55:51;2.67;;;0.40;;
68398;SDS011;56258;52.196;13.868;2022-09-12T14:58:32;1.95;;;0.40;;
68398;SDS011;56258;52.196;13.868;2022-09-12T15:00:59;1.80;;;0.40;;
68398;SDS011;56258;52.196;13.868;2022-09-12T15:03:33;2.13;;;0.47;;
68398;SDS011;56258;52.196;13.868;2022-09-12T15:06:01;2.80;;;0.60;;
68398;SDS011;56258;52.196;13.868;2022-09-12T15:08:30;2.72;;;0.40;;
68398;SDS011;56258;52.196;13.868;2022-09-12T15:10:57;3.75;;;0.50;;
68398;SDS011;56258;52.196;13.868;2022-09-12T15:13:25;1.93;;;0.40;;
68398;SDS011;56258;52.196;13.868;2022-09-12T15:15:54;2.65;;;0.50;;
68398;SDS011;56258;52.196;13.868;2022-09-12T15:18:23;2.38;;;0.40;;
68398;SDS011;56258;52.196;13.868;2022-09-12T15:20:56;2.72;;;0.30;;
68398;SDS011;56258;52.196;13.868;2022-09-12T15:26:03;1.90;;;0.40;;
68398;SDS011;56258;52.196;13.868;2022-09-12T15:28:31;1.90;;;0.30;;
68398;SDS011;56258;52.196;13.868;2022-09-12T15:31:06;3.17;;;0.70;;
68398;SDS011;56258;52.196;13.868;2022-09-12T15:33:53;2.92;;;0.47;;
68398;SDS011;56258;52.196;13.868;2022-09-12T15:36:22;2.35;;;0.40;;
68398;SDS011;56258;52.196;13.868;2022-09-12T15:38:50;2.10;;;0.50;;
68398;SDS011;56258;52.196;13.868;2022-09-12T15:41:19;2.17;;;0.40;;
68398;SDS011;56258;52.196;13.868;2022-09-12T15:43:46;2.40;;;0.45;;
68398;SDS011;56258;52.196;13.868;2022-09-12T15:46:14;3.15;;;0.50;;
68398;SDS011;56258;52.196;13.868;2022-09-12T15:48:42;3.05;;;0.60;;
68398;SDS011;56258;52.196;13.868;2022-09-12T15:51:12;4.30;;;0.30;;
68398;SDS011;56258;52.196;13.868;2022-09-12T15:53:46;4.18;;;0.50;;
68398;SDS011;56258;52.196;13.868;2022-09-12T15:56:17;4.28;;;0.70;;
68398;SDS011;56258;52.196;13.868;2022-09-12T15:58:45;5.57;;;0.50;;
68398;SDS011;56258;52.196;13.868;2022-09-12T16:01:24;5.80;;;0.60;;
68398;SDS011;56258;52.196;13.868;2022-09-12T16:03:52;5.70;;;0.63;;
68398;SDS011;56258;52.196;13.868;2022-09-12T16:06:18;5.57;;;1.00;;
68398;SDS011;56258;52.196;13.868;2022-09-12T16:08:45;6.80;;;0.63;;
68398;SDS011;56258;52.196;13.868;2022-09-12T16:11:24;6.45;;;0.82;;
68398;SDS011;56258;52.196;13.868;2022-09-12T16:13:52;5.25;;;0.55;;
68398;SDS011;56258;52.196;13.868;2022-09-12T16:16:20;5.07;;;0.70;;
68398;SDS011;56258;52.196;13.868;2022-09-12T16:18:47;5.30;;;0.40;;
68398;SDS011;56258;52.196;13.868;2022-09-12T16:21:14;5.25;;;0.73;;
68398;SDS011;56258;52.196;13.868;2022-09-12T16:23:42;5.90;;;0.82;;
68398;SDS011;56258;52.196;13.868;2022-09-12T16:26:09;5.47;;;0.63;;
68398;SDS011;56258;52.196;13.868;2022-09-12T16:28:36;3.27;;;0.50;;
68398;SDS011;56258;52.196;13.868;2022-09-12T16:31:03;4.28;;;0.60;;
68398;SDS011;56258;52.196;13.868;2022-09-12T16:33:31;4.85;;;0.90;;
68398;SDS011;56258;52.196;13.868;2022-09-12T16:38:29;5.72;;;0.70;;
68398;SDS011;56258;52.196;13.868;2022-09-12T16:41:03;4.87;;;0.70;;
68398;SDS011;56258;52.196;13.868;2022-09-12T16:43:32;4.15;;;0.55;;
68398;SDS011;56258;52.196;13.868;2022-09-12T16:46:10;4.60;;;0.60;;
68398;SDS011;56258;52.196;13.868;2022-09-12T16:48:51;4.30;;;0.55;;
68398;SDS011;56258;52.196;13.868;2022-09-12T16:51:20;5.55;;;0.50;;
68398;SDS011;56258;52.196;13.868;2022-09-12T16:53:49;3.73;;;0.50;;
68398;SDS011;56258;52.196;13.868;2022-09-12T16:56:16;4.18;;;0.50;;
68398;SDS011;56258;52.196;13.868;2022-09-12T16:58:43;5.18;;;0.68;;
68398;SDS011;56258;52.196;13.868;2022-09-12T17:01:12;4.25;;;0.50;;
68398;SDS011;56258;52.196;13.868;2022-09-12T17:03:40;4.05;;;0.50;;
68398;SDS011;56258;52.196;13.868;2022-09-12T17:06:09;4.73;;;0.50;;
68398;SDS011;56258;52.196;13.868;2022-09-12T17:08:41;4.22;;;0.50;;
68398;SDS011;56258;52.196;13.868;2022-09-12T17:11:10;4.43;;;0.73;;
68398;SDS011;56258;52.196;13.868;2022-09-12T17:13:39;4.00;;;0.60;;
68398;SDS011;56258;52.196;13.868;2022-09-12T17:16:26;3.55;;;0.70;;